sensor_id;sensor_type;location;lat;lon;timestamp;P1;durP1;ratioP1;P2;durP2;ratioP2
34737;SDS011;39910;47.154;27.614;2023-05-29T00:01:51;11.93;;;11.32;;
34737;SDS011;39910;47.154;27.614;2023-05-29T00:04:17;12.00;;;11.40;;
34737;SDS011;39910;47.154;27.614;2023-05-29T00:06:42;11.82;;;11.23;;
34737;SDS011;39910;47.154;27.614;2023-05-29T00:09:07;12.10;;;11.50;;
34737;SDS011;39910;47.154;27.614;2023-05-29T00:11:33;11.57;;;11.07;;
34737;SDS011;39910;47.154;27.614;2023-05-29T00:13:58;11.57;;;11.07;;
34737;SDS011;39910;47.154;27.614;2023-05-29T00:16:24;11.50;;;11.00;;
34737;SDS011;39910;47.154;27.614;2023-05-29T00:18:49;11.50;;;11.00;;
34737;SDS011;39910;47.154;27.614;2023-05-29T00:21:17;11.77;;;11.18;;
34737;SDS011;39910;47.154;27.614;2023-05-29T00:23:42;11.40;;;10.90;;
34737;SDS011;39910;47.154;27.614;2023-05-29T00:26:08;12.63;;;12.00;;
34737;SDS011;39910;47.154;27.614;2023-05-29T00:28:34;11.35;;;10.85;;
34737;SDS011;39910;47.154;27.614;2023-05-29T00:30:59;12.48;;;11.88;;
34737;SDS011;39910;47.154;27.614;2023-05-29T00:33:24;11.70;;;11.13;;
34737;SDS011;39910;47.154;27.614;2023-05-29T00:35:50;11.40;;;10.90;;
34737;SDS011;39910;47.154;27.614;2023-05-29T00:38:15;11.93;;;11.32;;
34737;SDS011;39910;47.154;27.614;2023-05-29T00:40:41;11.95;;;11.35;;
34737;SDS011;39910;47.154;27.614;2023-05-29T00:43:06;12.02;;;11.43;;
34737;SDS011;39910;47.154;27.614;2023-05-29T00:45:31;11.50;;;11.00;;
34737;SDS011;39910;47.154;27.614;2023-05-29T00:48:01;11.45;;;10.95;;
34737;SDS011;39910;47.154;27.614;2023-05-29T00:50:26;11.80;;;11.20;;
34737;SDS011;39910;47.154;27.614;2023-05-29T00:52:52;11.45;;;10.95;;
34737;SDS011;39910;47.154;27.614;2023-05-29T00:55:18;12.68;;;12.02;;
34737;SDS011;39910;47.154;27.614;2023-05-29T00:57:43;11.70;;;11.10;;
34737;SDS011;39910;47.154;27.614;2023-05-29T01:00:10;11.90;;;11.30;;
34737;SDS011;39910;47.154;27.614;2023-05-29T01:02:39;11.95;;;11.35;;
34737;SDS011;39910;47.154;27.614;2023-05-29T01:05:05;12.13;;;11.52;;
34737;SDS011;39910;47.154;27.614;2023-05-29T01:07:30;12.38;;;11.77;;
34737;SDS011;39910;47.154;27.614;2023-05-29T01:09:56;11.70;;;11.20;;
34737;SDS011;39910;47.154;27.614;2023-05-29T01:25:11;11.80;;;11.25;;
34737;SDS011;39910;47.154;27.614;2023-05-29T01:27:40;12.20;;;11.60;;
34737;SDS011;39910;47.154;27.614;2023-05-29T01:30:07;12.82;;;12.13;;
34737;SDS011;39910;47.154;27.614;2023-05-29T01:32:32;12.10;;;11.50;;
34737;SDS011;39910;47.154;27.614;2023-05-29T01:34:58;11.85;;;11.30;;
34737;SDS011;39910;47.154;27.614;2023-05-29T01:37:24;12.02;;;11.43;;
34737;SDS011;39910;47.154;27.614;2023-05-29T01:39:49;12.20;;;11.60;;
34737;SDS011;39910;47.154;27.614;2023-05-29T01:42:14;11.73;;;11.13;;
34737;SDS011;39910;47.154;27.614;2023-05-29T01:44:40;11.80;;;11.20;;
34737;SDS011;39910;47.154;27.614;2023-05-29T01:47:05;11.88;;;11.27;;
34737;SDS011;39910;47.154;27.614;2023-05-29T01:49:31;12.40;;;11.80;;
34737;SDS011;39910;47.154;27.614;2023-05-29T01:51:56;12.05;;;11.45;;
34737;SDS011;39910;47.154;27.614;2023-05-29T01:54:21;12.30;;;11.70;;
34737;SDS011;39910;47.154;27.614;2023-05-29T01:56:47;11.40;;;10.90;;
34737;SDS011;39910;47.154;27.614;2023-05-29T01:59:12;12.77;;;12.13;;
34737;SDS011;39910;47.154;27.614;2023-05-29T02:01:38;12.35;;;11.75;;
34737;SDS011;39910;47.154;27.614;2023-05-29T02:04:04;11.68;;;11.13;;
34737;SDS011;39910;47.154;27.614;2023-05-29T02:06:29;12.15;;;11.55;;
34737;SDS011;39910;47.154;27.614;2023-05-29T02:08:56;11.73;;;11.18;;
34737;SDS011;39910;47.154;27.614;2023-05-29T02:11:21;11.60;;;11.10;;
34737;SDS011;39910;47.154;27.614;2023-05-29T02:13:46;11.50;;;11.00;;
34737;SDS011;39910;47.154;27.614;2023-05-29T02:16:12;13.00;;;12.30;;
34737;SDS011;39910;47.154;27.614;2023-05-29T02:18:37;12.50;;;11.90;;
34737;SDS011;39910;47.154;27.614;2023-05-29T02:21:02;12.25;;;11.65;;
34737;SDS011;39910;47.154;27.614;2023-05-29T02:23:28;12.35;;;11.75;;
34737;SDS011;39910;47.154;27.614;2023-05-29T02:25:53;12.00;;;11.40;;
34737;SDS011;39910;47.154;27.614;2023-05-29T02:28:19;12.48;;;11.88;;
34737;SDS011;39910;47.154;27.614;2023-05-29T02:30:45;11.75;;;11.23;;
34737;SDS011;39910;47.154;27.614;2023-05-29T02:33:10;11.90;;;11.30;;
34737;SDS011;39910;47.154;27.614;2023-05-29T02:35:35;11.82;;;11.30;;
34737;SDS011;39910;47.154;27.614;2023-05-29T02:38:01;11.70;;;11.15;;
34737;SDS011;39910;47.154;27.614;2023-05-29T02:40:26;12.40;;;11.80;;
34737;SDS011;39910;47.154;27.614;2023-05-29T02:42:51;11.98;;;11.38;;
34737;SDS011;39910;47.154;27.614;2023-05-29T02:45:17;12.30;;;11.70;;
34737;SDS011;39910;47.154;27.614;2023-05-29T02:47:42;11.80;;;11.20;;
34737;SDS011;39910;47.154;27.614;2023-05-29T02:50:07;12.10;;;11.50;;
34737;SDS011;39910;47.154;27.614;2023-05-29T02:52:33;11.82;;;11.25;;
34737;SDS011;39910;47.154;27.614;2023-05-29T02:54:58;11.52;;;11.02;;
34737;SDS011;39910;47.154;27.614;2023-05-29T02:57:25;11.32;;;10.82;;
34737;SDS011;39910;47.154;27.614;2023-05-29T02:59:50;11.32;;;10.82;;
34737;SDS011;39910;47.154;27.614;2023-05-29T03:02:20;12.00;;;11.40;;
34737;SDS011;39910;47.154;27.614;2023-05-29T03:04:45;11.60;;;11.10;;
34737;SDS011;39910;47.154;27.614;2023-05-29T03:07:11;12.20;;;11.60;;
34737;SDS011;39910;47.154;27.614;2023-05-29T03:09:37;11.43;;;10.93;;
34737;SDS011;39910;47.154;27.614;2023-05-29T03:12:03;11.32;;;10.82;;
34737;SDS011;39910;47.154;27.614;2023-05-29T03:14:28;11.70;;;11.20;;
34737;SDS011;39910;47.154;27.614;2023-05-29T03:16:53;12.00;;;11.40;;
34737;SDS011;39910;47.154;27.614;2023-05-29T03:19:19;12.70;;;12.10;;
34737;SDS011;39910;47.154;27.614;2023-05-29T03:21:44;11.68;;;11.18;;
34737;SDS011;39910;47.154;27.614;2023-05-29T03:24:10;12.00;;;11.40;;
34737;SDS011;39910;47.154;27.614;2023-05-29T03:26:35;11.43;;;10.93;;
34737;SDS011;39910;47.154;27.614;2023-05-29T03:29:01;11.43;;;10.93;;
34737;SDS011;39910;47.154;27.614;2023-05-29T03:31:27;11.88;;;11.38;;
34737;SDS011;39910;47.154;27.614;2023-05-29T03:33:52;11.55;;;11.05;;
34737;SDS011;39910;47.154;27.614;2023-05-29T03:36:17;11.80;;;11.30;;
34737;SDS011;39910;47.154;27.614;2023-05-29T03:38:43;11.70;;;11.20;;
34737;SDS011;39910;47.154;27.614;2023-05-29T03:41:08;11.60;;;11.10;;
34737;SDS011;39910;47.154;27.614;2023-05-29T03:43:33;12.70;;;12.10;;
34737;SDS011;39910;47.154;27.614;2023-05-29T03:45:59;13.00;;;12.40;;
34737;SDS011;39910;47.154;27.614;2023-05-29T03:48:24;12.18;;;11.57;;
34737;SDS011;39910;47.154;27.614;2023-05-29T03:50:50;12.25;;;11.65;;
34737;SDS011;39910;47.154;27.614;2023-05-29T03:53:15;12.48;;;11.88;;
34737;SDS011;39910;47.154;27.614;2023-05-29T03:55:40;12.23;;;11.65;;
34737;SDS011;39910;47.154;27.614;2023-05-29T03:58:06;12.45;;;11.85;;
34737;SDS011;39910;47.154;27.614;2023-05-29T04:00:32;12.20;;;11.60;;
34737;SDS011;39910;47.154;27.614;2023-05-29T04:02:57;11.80;;;11.30;;
34737;SDS011;39910;47.154;27.614;2023-05-29T04:05:22;12.88;;;12.27;;
34737;SDS011;39910;47.154;27.614;2023-05-29T04:07:47;12.57;;;11.98;;
34737;SDS011;39910;47.154;27.614;2023-05-29T04:10:13;12.73;;;12.13;;
34737;SDS011;39910;47.154;27.614;2023-05-29T04:12:38;12.40;;;11.80;;
34737;SDS011;39910;47.154;27.614;2023-05-29T04:15:04;12.25;;;11.70;;
34737;SDS011;39910;47.154;27.614;2023-05-29T04:17:29;11.77;;;11.27;;
34737;SDS011;39910;47.154;27.614;2023-05-29T04:19:55;11.73;;;11.23;;
34737;SDS011;39910;47.154;27.614;2023-05-29T04:22:20;12.38;;;11.77;;
34737;SDS011;39910;47.154;27.614;2023-05-29T04:24:46;12.10;;;11.60;;
34737;SDS011;39910;47.154;27.614;2023-05-29T04:27:11;12.02;;;11.52;;
34737;SDS011;39910;47.154;27.614;2023-05-29T04:29:38;11.82;;;11.32;;
34737;SDS011;39910;47.154;27.614;2023-05-29T04:32:05;12.02;;;11.52;;
34737;SDS011;39910;47.154;27.614;2023-05-29T04:34:31;12.10;;;11.60;;
34737;SDS011;39910;47.154;27.614;2023-05-29T04:36:57;12.45;;;11.88;;
34737;SDS011;39910;47.154;27.614;2023-05-29T04:39:23;12.32;;;11.82;;
34737;SDS011;39910;47.154;27.614;2023-05-29T04:41:48;12.30;;;11.77;;
34737;SDS011;39910;47.154;27.614;2023-05-29T04:44:14;12.60;;;12.00;;
34737;SDS011;39910;47.154;27.614;2023-05-29T04:46:40;12.00;;;11.50;;
34737;SDS011;39910;47.154;27.614;2023-05-29T04:49:05;11.73;;;11.23;;
34737;SDS011;39910;47.154;27.614;2023-05-29T04:51:30;11.80;;;11.30;;
34737;SDS011;39910;47.154;27.614;2023-05-29T04:53:56;12.50;;;11.90;;
34737;SDS011;39910;47.154;27.614;2023-05-29T04:56:21;12.13;;;11.63;;
34737;SDS011;39910;47.154;27.614;2023-05-29T04:58:47;12.02;;;11.52;;
34737;SDS011;39910;47.154;27.614;2023-05-29T05:01:12;12.48;;;11.90;;
34737;SDS011;39910;47.154;27.614;2023-05-29T05:03:42;11.73;;;11.23;;
34737;SDS011;39910;47.154;27.614;2023-05-29T05:06:07;12.52;;;11.95;;
34737;SDS011;39910;47.154;27.614;2023-05-29T05:08:33;12.50;;;11.90;;
34737;SDS011;39910;47.154;27.614;2023-05-29T05:10:59;12.10;;;11.60;;
34737;SDS011;39910;47.154;27.614;2023-05-29T05:13:25;12.10;;;11.60;;
34737;SDS011;39910;47.154;27.614;2023-05-29T05:15:50;12.10;;;11.60;;
34737;SDS011;39910;47.154;27.614;2023-05-29T05:18:15;12.20;;;11.70;;
34737;SDS011;39910;47.154;27.614;2023-05-29T05:20:41;11.90;;;11.40;;
34737;SDS011;39910;47.154;27.614;2023-05-29T05:23:06;12.02;;;11.52;;
34737;SDS011;39910;47.154;27.614;2023-05-29T05:25:32;12.10;;;11.60;;
34737;SDS011;39910;47.154;27.614;2023-05-29T05:27:59;12.55;;;11.95;;
34737;SDS011;39910;47.154;27.614;2023-05-29T05:30:25;12.18;;;11.68;;
34737;SDS011;39910;47.154;27.614;2023-05-29T05:32:50;11.83;;;11.33;;
34737;SDS011;39910;47.154;27.614;2023-05-29T05:35:15;12.52;;;11.93;;
34737;SDS011;39910;47.154;27.614;2023-05-29T05:37:40;12.70;;;12.10;;
34737;SDS011;39910;47.154;27.614;2023-05-29T05:40:06;12.40;;;11.85;;
34737;SDS011;39910;47.154;27.614;2023-05-29T05:42:32;12.70;;;12.10;;
34737;SDS011;39910;47.154;27.614;2023-05-29T05:44:57;12.05;;;11.55;;
34737;SDS011;39910;47.154;27.614;2023-05-29T05:47:23;12.27;;;11.77;;
34737;SDS011;39910;47.154;27.614;2023-05-29T05:49:48;12.17;;;11.67;;
34737;SDS011;39910;47.154;27.614;2023-05-29T05:52:16;12.10;;;11.60;;
34737;SDS011;39910;47.154;27.614;2023-05-29T05:54:41;13.18;;;12.57;;
34737;SDS011;39910;47.154;27.614;2023-05-29T05:57:07;12.82;;;12.23;;
34737;SDS011;39910;47.154;27.614;2023-05-29T05:59:32;12.20;;;11.70;;
34737;SDS011;39910;47.154;27.614;2023-05-29T06:01:57;12.43;;;11.83;;
34737;SDS011;39910;47.154;27.614;2023-05-29T06:04:23;12.13;;;11.63;;
34737;SDS011;39910;47.154;27.614;2023-05-29T06:06:48;11.90;;;11.40;;
34737;SDS011;39910;47.154;27.614;2023-05-29T06:09:14;12.00;;;11.50;;
34737;SDS011;39910;47.154;27.614;2023-05-29T06:11:39;11.88;;;11.38;;
34737;SDS011;39910;47.154;27.614;2023-05-29T06:14:04;12.25;;;11.75;;
34737;SDS011;39910;47.154;27.614;2023-05-29T06:16:30;11.77;;;11.27;;
34737;SDS011;39910;47.154;27.614;2023-05-29T06:18:55;12.00;;;11.50;;
34737;SDS011;39910;47.154;27.614;2023-05-29T06:21:21;11.95;;;11.45;;
34737;SDS011;39910;47.154;27.614;2023-05-29T06:23:46;12.23;;;11.73;;
34737;SDS011;39910;47.154;27.614;2023-05-29T06:26:12;12.25;;;11.75;;
34737;SDS011;39910;47.154;27.614;2023-05-29T06:28:38;12.63;;;12.02;;
34737;SDS011;39910;47.154;27.614;2023-05-29T06:31:03;13.43;;;12.82;;
34737;SDS011;39910;47.154;27.614;2023-05-29T06:33:29;13.35;;;12.75;;
34737;SDS011;39910;47.154;27.614;2023-05-29T06:35:55;12.73;;;12.13;;
34737;SDS011;39910;47.154;27.614;2023-05-29T06:38:20;12.98;;;12.38;;
34737;SDS011;39910;47.154;27.614;2023-05-29T06:40:45;12.40;;;11.90;;
34737;SDS011;39910;47.154;27.614;2023-05-29T06:43:11;12.80;;;12.20;;
34737;SDS011;39910;47.154;27.614;2023-05-29T06:45:37;12.32;;;11.82;;
34737;SDS011;39910;47.154;27.614;2023-05-29T06:48:02;12.73;;;12.13;;
34737;SDS011;39910;47.154;27.614;2023-05-29T06:50:28;13.30;;;12.70;;
34737;SDS011;39910;47.154;27.614;2023-05-29T06:52:54;13.10;;;12.50;;
34737;SDS011;39910;47.154;27.614;2023-05-29T06:55:19;12.90;;;12.30;;
34737;SDS011;39910;47.154;27.614;2023-05-29T06:57:44;12.57;;;11.98;;
34737;SDS011;39910;47.154;27.614;2023-05-29T07:00:10;13.30;;;12.70;;
34737;SDS011;39910;47.154;27.614;2023-05-29T07:02:36;12.85;;;12.25;;
34737;SDS011;39910;47.154;27.614;2023-05-29T07:05:01;12.75;;;12.15;;
34737;SDS011;39910;47.154;27.614;2023-05-29T07:07:26;12.60;;;12.00;;
34737;SDS011;39910;47.154;27.614;2023-05-29T07:09:53;13.15;;;12.55;;
34737;SDS011;39910;47.154;27.614;2023-05-29T07:12:18;12.63;;;12.02;;
34737;SDS011;39910;47.154;27.614;2023-05-29T07:14:44;13.10;;;12.50;;
34737;SDS011;39910;47.154;27.614;2023-05-29T07:17:09;12.80;;;12.20;;
34737;SDS011;39910;47.154;27.614;2023-05-29T07:19:34;12.63;;;12.03;;
34737;SDS011;39910;47.154;27.614;2023-05-29T07:22:00;12.63;;;12.03;;
34737;SDS011;39910;47.154;27.614;2023-05-29T07:24:25;12.33;;;11.83;;
34737;SDS011;39910;47.154;27.614;2023-05-29T07:26:51;13.05;;;12.45;;
34737;SDS011;39910;47.154;27.614;2023-05-29T07:29:17;13.55;;;12.95;;
34737;SDS011;39910;47.154;27.614;2023-05-29T07:31:45;12.48;;;11.88;;
34737;SDS011;39910;47.154;27.614;2023-05-29T07:34:10;13.10;;;12.50;;
34737;SDS011;39910;47.154;27.614;2023-05-29T07:36:35;12.70;;;12.10;;
34737;SDS011;39910;47.154;27.614;2023-05-29T07:39:01;13.00;;;12.40;;
34737;SDS011;39910;47.154;27.614;2023-05-29T07:41:26;13.27;;;12.68;;
34737;SDS011;39910;47.154;27.614;2023-05-29T07:43:51;12.75;;;12.15;;
34737;SDS011;39910;47.154;27.614;2023-05-29T07:46:17;13.38;;;12.77;;
34737;SDS011;39910;47.154;27.614;2023-05-29T07:48:43;13.15;;;12.55;;
34737;SDS011;39910;47.154;27.614;2023-05-29T07:51:08;13.93;;;13.23;;
34737;SDS011;39910;47.154;27.614;2023-05-29T07:53:35;13.77;;;13.07;;
34737;SDS011;39910;47.154;27.614;2023-05-29T07:56:00;13.88;;;13.18;;
34737;SDS011;39910;47.154;27.614;2023-05-29T07:58:26;14.20;;;13.50;;
34737;SDS011;39910;47.154;27.614;2023-05-29T08:00:52;14.07;;;13.38;;
34737;SDS011;39910;47.154;27.614;2023-05-29T08:03:17;15.10;;;14.30;;
34737;SDS011;39910;47.154;27.614;2023-05-29T08:05:42;13.30;;;12.70;;
34737;SDS011;39910;47.154;27.614;2023-05-29T08:08:08;14.10;;;13.40;;
34737;SDS011;39910;47.154;27.614;2023-05-29T08:10:33;13.20;;;12.60;;
34737;SDS011;39910;47.154;27.614;2023-05-29T08:12:58;13.93;;;13.23;;
34737;SDS011;39910;47.154;27.614;2023-05-29T08:15:24;13.70;;;13.00;;
34737;SDS011;39910;47.154;27.614;2023-05-29T08:17:51;13.77;;;13.07;;
34737;SDS011;39910;47.154;27.614;2023-05-29T08:20:16;14.63;;;13.93;;
34737;SDS011;39910;47.154;27.614;2023-05-29T08:22:42;14.27;;;13.57;;
34737;SDS011;39910;47.154;27.614;2023-05-29T08:25:07;15.00;;;14.20;;
34737;SDS011;39910;47.154;27.614;2023-05-29T08:27:33;13.60;;;12.90;;
34737;SDS011;39910;47.154;27.614;2023-05-29T08:29:58;13.50;;;12.80;;
34737;SDS011;39910;47.154;27.614;2023-05-29T08:32:23;12.27;;;11.68;;
34737;SDS011;39910;47.154;27.614;2023-05-29T08:34:51;12.77;;;12.18;;
34737;SDS011;39910;47.154;27.614;2023-05-29T08:37:16;13.65;;;12.95;;
34737;SDS011;39910;47.154;27.614;2023-05-29T08:39:42;13.68;;;12.98;;
34737;SDS011;39910;47.154;27.614;2023-05-29T08:42:10;15.18;;;14.38;;
34737;SDS011;39910;47.154;27.614;2023-05-29T08:44:38;13.68;;;12.98;;
34737;SDS011;39910;47.154;27.614;2023-05-29T08:47:04;13.38;;;12.75;;
34737;SDS011;39910;47.154;27.614;2023-05-29T08:49:38;13.13;;;12.52;;
34737;SDS011;39910;47.154;27.614;2023-05-29T08:52:26;13.82;;;13.13;;
34737;SDS011;39910;47.154;27.614;2023-05-29T08:54:51;14.02;;;13.32;;
34737;SDS011;39910;47.154;27.614;2023-05-29T08:57:17;13.23;;;12.57;;
34737;SDS011;39910;47.154;27.614;2023-05-29T08:59:43;14.05;;;13.35;;
34737;SDS011;39910;47.154;27.614;2023-05-29T09:02:09;13.98;;;13.27;;
34737;SDS011;39910;47.154;27.614;2023-05-29T09:04:34;16.08;;;15.18;;
34737;SDS011;39910;47.154;27.614;2023-05-29T09:07:06;14.20;;;13.50;;
34737;SDS011;39910;47.154;27.614;2023-05-29T09:11:59;13.55;;;12.85;;
34737;SDS011;39910;47.154;27.614;2023-05-29T09:14:32;13.88;;;13.18;;
34737;SDS011;39910;47.154;27.614;2023-05-29T09:16:59;13.95;;;13.25;;
34737;SDS011;39910;47.154;27.614;2023-05-29T09:19:25;13.88;;;13.18;;
34737;SDS011;39910;47.154;27.614;2023-05-29T09:21:50;14.48;;;13.73;;
34737;SDS011;39910;47.154;27.614;2023-05-29T09:24:16;13.50;;;12.82;;
34737;SDS011;39910;47.154;27.614;2023-05-29T09:26:48;13.90;;;13.20;;
34737;SDS011;39910;47.154;27.614;2023-05-29T09:29:13;13.98;;;13.27;;
34737;SDS011;39910;47.154;27.614;2023-05-29T09:31:45;14.05;;;13.35;;
34737;SDS011;39910;47.154;27.614;2023-05-29T09:34:11;14.85;;;14.05;;
34737;SDS011;39910;47.154;27.614;2023-05-29T09:36:37;13.50;;;12.80;;
34737;SDS011;39910;47.154;27.614;2023-05-29T09:39:03;12.80;;;12.20;;
34737;SDS011;39910;47.154;27.614;2023-05-29T09:41:28;13.63;;;12.93;;
34737;SDS011;39910;47.154;27.614;2023-05-29T09:43:56;13.57;;;12.88;;
34737;SDS011;39910;47.154;27.614;2023-05-29T09:46:21;14.10;;;13.40;;
34737;SDS011;39910;47.154;27.614;2023-05-29T09:48:47;12.93;;;12.32;;
34737;SDS011;39910;47.154;27.614;2023-05-29T09:51:22;13.75;;;13.05;;
34737;SDS011;39910;47.154;27.614;2023-05-29T09:53:48;13.57;;;12.88;;
34737;SDS011;39910;47.154;27.614;2023-05-29T09:56:15;13.65;;;12.95;;
34737;SDS011;39910;47.154;27.614;2023-05-29T09:58:42;13.80;;;13.10;;
34737;SDS011;39910;47.154;27.614;2023-05-29T10:01:12;13.23;;;12.52;;
34737;SDS011;39910;47.154;27.614;2023-05-29T10:03:38;14.30;;;13.50;;
34737;SDS011;39910;47.154;27.614;2023-05-29T10:06:03;13.85;;;13.15;;
34737;SDS011;39910;47.154;27.614;2023-05-29T10:08:30;13.98;;;13.27;;
34737;SDS011;39910;47.154;27.614;2023-05-29T10:11:00;12.88;;;12.27;;
34737;SDS011;39910;47.154;27.614;2023-05-29T10:13:31;13.63;;;12.93;;
34737;SDS011;39910;47.154;27.614;2023-05-29T10:15:59;14.18;;;13.48;;
34737;SDS011;39910;47.154;27.614;2023-05-29T10:18:26;15.05;;;14.25;;
34737;SDS011;39910;47.154;27.614;2023-05-29T10:20:54;13.68;;;12.98;;
34737;SDS011;39910;47.154;27.614;2023-05-29T10:23:22;13.15;;;12.50;;
34737;SDS011;39910;47.154;27.614;2023-05-29T10:25:51;15.07;;;14.27;;
34737;SDS011;39910;47.154;27.614;2023-05-29T10:28:18;13.38;;;12.68;;
34737;SDS011;39910;47.154;27.614;2023-05-29T10:30:45;13.40;;;12.70;;
34737;SDS011;39910;47.154;27.614;2023-05-29T10:35:48;14.15;;;13.45;;
34737;SDS011;39910;47.154;27.614;2023-05-29T10:38:16;14.75;;;13.95;;
34737;SDS011;39910;47.154;27.614;2023-05-29T10:40:43;13.65;;;12.95;;
34737;SDS011;39910;47.154;27.614;2023-05-29T10:43:09;13.10;;;12.50;;
34737;SDS011;39910;47.154;27.614;2023-05-29T10:45:54;13.95;;;13.25;;
34737;SDS011;39910;47.154;27.614;2023-05-29T10:50:53;13.95;;;13.25;;
34737;SDS011;39910;47.154;27.614;2023-05-29T10:53:25;13.95;;;13.25;;
34737;SDS011;39910;47.154;27.614;2023-05-29T10:55:53;14.00;;;13.30;;
34737;SDS011;39910;47.154;27.614;2023-05-29T10:58:19;15.00;;;14.20;;
34737;SDS011;39910;47.154;27.614;2023-05-29T11:00:45;14.05;;;13.35;;
34737;SDS011;39910;47.154;27.614;2023-05-29T11:03:13;13.95;;;13.25;;
34737;SDS011;39910;47.154;27.614;2023-05-29T11:08:56;14.27;;;13.57;;
34737;SDS011;39910;47.154;27.614;2023-05-29T11:13:52;14.52;;;13.80;;
34737;SDS011;39910;47.154;27.614;2023-05-29T11:18:44;13.80;;;13.10;;
34737;SDS011;39910;47.154;27.614;2023-05-29T11:23:52;14.05;;;13.35;;
34737;SDS011;39910;47.154;27.614;2023-05-29T11:26:22;13.68;;;12.98;;
34737;SDS011;39910;47.154;27.614;2023-05-29T11:28:47;13.98;;;13.27;;
34737;SDS011;39910;47.154;27.614;2023-05-29T11:31:13;13.77;;;13.07;;
34737;SDS011;39910;47.154;27.614;2023-05-29T11:33:40;14.38;;;13.68;;
34737;SDS011;39910;47.154;27.614;2023-05-29T11:36:08;15.07;;;14.27;;
34737;SDS011;39910;47.154;27.614;2023-05-29T11:38:33;14.50;;;13.77;;
34737;SDS011;39910;47.154;27.614;2023-05-29T11:41:00;14.30;;;13.60;;
34737;SDS011;39910;47.154;27.614;2023-05-29T11:43:26;12.90;;;12.30;;
34737;SDS011;39910;47.154;27.614;2023-05-29T11:45:51;14.80;;;14.00;;
34737;SDS011;39910;47.154;27.614;2023-05-29T11:48:17;13.00;;;12.40;;
34737;SDS011;39910;47.154;27.614;2023-05-29T11:50:42;12.90;;;12.30;;
34737;SDS011;39910;47.154;27.614;2023-05-29T11:53:08;14.25;;;13.55;;
34737;SDS011;39910;47.154;27.614;2023-05-29T11:55:34;13.48;;;12.77;;
34737;SDS011;39910;47.154;27.614;2023-05-29T11:58:01;14.07;;;13.38;;
34737;SDS011;39910;47.154;27.614;2023-05-29T12:00:30;13.65;;;12.95;;
34737;SDS011;39910;47.154;27.614;2023-05-29T12:02:57;13.15;;;12.55;;
34737;SDS011;39910;47.154;27.614;2023-05-29T12:05:22;12.82;;;12.23;;
34737;SDS011;39910;47.154;27.614;2023-05-29T12:10:15;12.93;;;12.32;;
34737;SDS011;39910;47.154;27.614;2023-05-29T12:12:41;13.00;;;12.40;;
34737;SDS011;39910;47.154;27.614;2023-05-29T12:15:07;13.25;;;12.60;;
34737;SDS011;39910;47.154;27.614;2023-05-29T12:17:33;12.30;;;11.70;;
34737;SDS011;39910;47.154;27.614;2023-05-29T12:19:59;12.48;;;11.88;;
34737;SDS011;39910;47.154;27.614;2023-05-29T12:22:34;12.95;;;12.35;;
34737;SDS011;39910;47.154;27.614;2023-05-29T12:25:04;14.45;;;13.73;;
34737;SDS011;39910;47.154;27.614;2023-05-29T12:27:30;13.35;;;12.65;;
34737;SDS011;39910;47.154;27.614;2023-05-29T12:30:01;12.43;;;11.82;;
34737;SDS011;39910;47.154;27.614;2023-05-29T12:32:34;12.63;;;12.02;;
34737;SDS011;39910;47.154;27.614;2023-05-29T12:34:59;12.93;;;12.32;;
34737;SDS011;39910;47.154;27.614;2023-05-29T12:37:24;12.90;;;12.30;;
34737;SDS011;39910;47.154;27.614;2023-05-29T12:40:08;13.00;;;12.40;;
34737;SDS011;39910;47.154;27.614;2023-05-29T12:45:01;15.37;;;14.57;;
34737;SDS011;39910;47.154;27.614;2023-05-29T12:47:26;12.63;;;12.02;;
34737;SDS011;39910;47.154;27.614;2023-05-29T12:49:51;14.88;;;14.07;;
34737;SDS011;39910;47.154;27.614;2023-05-29T12:52:19;12.63;;;12.02;;
34737;SDS011;39910;47.154;27.614;2023-05-29T12:54:45;12.23;;;11.65;;
34737;SDS011;39910;47.154;27.614;2023-05-29T12:57:10;13.00;;;12.40;;
34737;SDS011;39910;47.154;27.614;2023-05-29T12:59:36;12.98;;;12.38;;
34737;SDS011;39910;47.154;27.614;2023-05-29T13:02:01;14.00;;;13.30;;
34737;SDS011;39910;47.154;27.614;2023-05-29T13:04:26;13.80;;;13.10;;
34737;SDS011;39910;47.154;27.614;2023-05-29T13:06:52;14.00;;;13.30;;
34737;SDS011;39910;47.154;27.614;2023-05-29T13:09:17;13.43;;;12.73;;
34737;SDS011;39910;47.154;27.614;2023-05-29T13:11:42;13.63;;;12.93;;
34737;SDS011;39910;47.154;27.614;2023-05-29T13:14:08;13.27;;;12.65;;
34737;SDS011;39910;47.154;27.614;2023-05-29T13:16:33;13.43;;;12.73;;
34737;SDS011;39910;47.154;27.614;2023-05-29T13:18:58;13.73;;;13.02;;
34737;SDS011;39910;47.154;27.614;2023-05-29T13:21:23;14.67;;;13.87;;
34737;SDS011;39910;47.154;27.614;2023-05-29T13:23:49;14.23;;;13.53;;
34737;SDS011;39910;47.154;27.614;2023-05-29T13:26:14;14.80;;;14.00;;
34737;SDS011;39910;47.154;27.614;2023-05-29T13:28:39;12.73;;;12.13;;
34737;SDS011;39910;47.154;27.614;2023-05-29T13:31:05;15.97;;;15.07;;
34737;SDS011;39910;47.154;27.614;2023-05-29T13:33:30;13.43;;;12.73;;
34737;SDS011;39910;47.154;27.614;2023-05-29T13:35:55;13.25;;;12.63;;
34737;SDS011;39910;47.154;27.614;2023-05-29T13:38:21;13.52;;;12.82;;
34737;SDS011;39910;47.154;27.614;2023-05-29T13:40:46;13.95;;;13.25;;
34737;SDS011;39910;47.154;27.614;2023-05-29T13:43:11;13.50;;;12.80;;
34737;SDS011;39910;47.154;27.614;2023-05-29T13:45:37;13.30;;;12.63;;
34737;SDS011;39910;47.154;27.614;2023-05-29T13:48:03;14.18;;;13.48;;
34737;SDS011;39910;47.154;27.614;2023-05-29T13:50:28;14.35;;;13.63;;
34737;SDS011;39910;47.154;27.614;2023-05-29T13:52:54;14.95;;;14.15;;
34737;SDS011;39910;47.154;27.614;2023-05-29T13:55:19;14.48;;;13.73;;
34737;SDS011;39910;47.154;27.614;2023-05-29T13:57:44;13.85;;;13.15;;
34737;SDS011;39910;47.154;27.614;2023-05-29T14:00:10;15.73;;;14.85;;
34737;SDS011;39910;47.154;27.614;2023-05-29T14:02:36;13.82;;;13.13;;
34737;SDS011;39910;47.154;27.614;2023-05-29T14:05:01;14.38;;;13.68;;
34737;SDS011;39910;47.154;27.614;2023-05-29T14:07:26;13.07;;;12.47;;
34737;SDS011;39910;47.154;27.614;2023-05-29T14:09:52;13.95;;;13.25;;
34737;SDS011;39910;47.154;27.614;2023-05-29T14:12:17;13.73;;;13.02;;
34737;SDS011;39910;47.154;27.614;2023-05-29T14:14:43;13.93;;;13.23;;
34737;SDS011;39910;47.154;27.614;2023-05-29T14:17:08;14.25;;;13.55;;
34737;SDS011;39910;47.154;27.614;2023-05-29T14:19:34;13.77;;;13.07;;
34737;SDS011;39910;47.154;27.614;2023-05-29T14:21:59;13.48;;;12.77;;
34737;SDS011;39910;47.154;27.614;2023-05-29T14:24:25;13.85;;;13.15;;
34737;SDS011;39910;47.154;27.614;2023-05-29T14:26:51;14.65;;;13.85;;
34737;SDS011;39910;47.154;27.614;2023-05-29T14:29:16;15.30;;;14.50;;
34737;SDS011;39910;47.154;27.614;2023-05-29T14:31:42;13.25;;;12.57;;
34737;SDS011;39910;47.154;27.614;2023-05-29T14:34:07;14.48;;;13.68;;
34737;SDS011;39910;47.154;27.614;2023-05-29T14:36:33;12.82;;;12.23;;
34737;SDS011;39910;47.154;27.614;2023-05-29T14:38:58;13.82;;;13.13;;